createdAt,value
2018-09-08T00:00:09.384Z,987.86
2018-09-08T00:01:09.559Z,987.87
2018-09-08T00:02:09.762Z,987.87
2018-09-08T00:03:09.948Z,987.86
2018-09-08T00:04:10.132Z,987.87
2018-09-08T00:05:10.324Z,987.88
2018-09-08T00:06:10.501Z,987.86
2018-09-08T00:07:10.700Z,987.85
2018-09-08T00:08:10.877Z,987.86
2018-09-08T00:09:11.061Z,987.88
2018-09-08T00:10:11.243Z,987.87
2018-09-08T00:11:11.422Z,987.89
2018-09-08T00:12:11.613Z,987.94
2018-09-08T00:13:11.803Z,987.90
2018-09-08T00:14:11.980Z,987.88
2018-09-08T00:15:12.165Z,987.84
2018-09-08T00:16:12.365Z,987.88
2018-09-08T00:17:12.562Z,987.88
2018-09-08T00:18:13.649Z,987.86
2018-09-08T00:19:12.953Z,987.86
2018-09-08T00:20:13.173Z,987.91
2018-09-08T00:21:13.353Z,987.86
2018-09-08T00:22:13.548Z,987.87
2018-09-08T00:23:13.733Z,987.86
2018-09-08T00:24:13.933Z,987.81
2018-09-08T00:25:14.110Z,987.90
2018-09-08T00:26:14.314Z,987.92
2018-09-08T00:27:14.494Z,987.93
2018-09-08T00:28:14.694Z,987.93
2018-09-08T00:29:14.892Z,987.95
2018-09-08T00:30:15.073Z,987.94
2018-09-08T00:31:15.301Z,987.97
2018-09-08T00:32:15.497Z,987.99
2018-09-08T00:33:15.706Z,987.95
2018-09-08T00:34:15.899Z,987.98
2018-09-08T00:35:16.077Z,987.94
2018-09-08T00:36:16.270Z,987.95
2018-09-08T00:37:16.452Z,987.95
2018-09-08T00:38:16.642Z,987.96
2018-09-08T00:39:16.834Z,987.96
2018-09-08T00:40:17.046Z,987.95
2018-09-08T00:41:17.210Z,987.97
2018-09-08T00:42:17.395Z,987.95
2018-09-08T00:43:17.582Z,987.95
2018-09-08T00:44:17.771Z,987.95
2018-09-08T00:45:17.953Z,987.93
2018-09-08T00:46:18.148Z,987.96
2018-09-08T00:47:18.331Z,987.96
2018-09-08T00:48:18.516Z,987.96
2018-09-08T00:49:18.701Z,988.02
2018-09-08T00:50:18.894Z,987.98
2018-09-08T00:51:19.077Z,987.96
2018-09-08T00:52:19.274Z,987.99
2018-09-08T00:53:19.461Z,987.99
2018-09-08T00:54:19.650Z,988.00
2018-09-08T00:55:19.840Z,987.98
2018-09-08T00:56:20.025Z,988.00
2018-09-08T00:57:20.217Z,987.97
2018-09-08T00:58:20.409Z,987.98
2018-09-08T00:59:20.592Z,988.01
2018-09-08T01:00:20.782Z,988.01
2018-09-08T01:01:20.970Z,987.99
2018-09-08T01:02:21.154Z,988.00
2018-09-08T01:03:21.339Z,988.01
2018-09-08T01:04:21.527Z,988.01
2018-09-08T01:05:21.713Z,988.04
2018-09-08T01:06:21.897Z,988.05
2018-09-08T01:07:22.084Z,988.02
2018-09-08T01:08:22.277Z,988.02
2018-09-08T01:09:22.459Z,988.01
2018-09-08T01:10:22.648Z,988.01
2018-09-08T01:11:22.832Z,988.01
2018-09-08T01:12:23.032Z,987.97
2018-09-08T01:13:23.213Z,987.96
2018-09-08T01:14:23.403Z,988.03
2018-09-08T01:15:23.598Z,988.03
2018-09-08T01:16:23.785Z,988.03
2018-09-08T01:17:23.972Z,988.09
2018-09-08T01:18:24.163Z,988.07
2018-09-08T01:19:24.346Z,988.08
2018-09-08T01:20:24.533Z,988.07
2018-09-08T01:21:24.721Z,988.07
2018-09-08T01:22:24.912Z,988.11
2018-09-08T01:23:25.103Z,988.10
2018-09-08T01:24:25.288Z,988.10
2018-09-08T01:25:25.484Z,988.08
2018-09-08T01:26:25.669Z,988.10
2018-09-08T01:27:25.861Z,988.10
2018-09-08T01:28:26.047Z,988.12
2018-09-08T01:29:26.239Z,988.12
2018-09-08T01:30:26.424Z,988.14
2018-09-08T01:31:26.613Z,988.13
2018-09-08T01:32:26.799Z,988.14
2018-09-08T01:33:26.988Z,988.14
2018-09-08T01:34:27.174Z,988.15
2018-09-08T01:35:27.367Z,988.15
2018-09-08T01:36:27.562Z,988.14
2018-09-08T01:37:27.752Z,988.11
2018-09-08T01:38:27.939Z,988.11
2018-09-08T01:39:28.121Z,988.09
2018-09-08T01:40:28.310Z,988.14
2018-09-08T01:41:28.496Z,988.12
2018-09-08T01:42:28.680Z,988.12
2018-09-08T01:43:28.869Z,988.14
2018-09-08T01:44:29.055Z,988.16
2018-09-08T01:45:29.234Z,988.18
2018-09-08T01:46:29.416Z,988.17
2018-09-08T01:47:29.602Z,988.16
2018-09-08T01:48:29.792Z,988.20
2018-09-08T01:49:29.976Z,988.23
2018-09-08T01:50:30.162Z,988.25
2018-09-08T01:51:30.351Z,988.18
2018-09-08T01:52:30.545Z,988.18
2018-09-08T01:53:30.729Z,988.17
2018-09-08T01:54:30.929Z,988.17
2018-09-08T01:55:31.111Z,988.17
2018-09-08T01:56:31.297Z,988.16
2018-09-08T01:57:31.482Z,988.11
2018-09-08T01:58:31.670Z,988.12
2018-09-08T01:59:31.859Z,988.14
2018-09-08T02:00:32.042Z,988.16
2018-09-08T02:01:32.229Z,988.15
2018-09-08T02:02:32.414Z,988.17
2018-09-08T02:03:32.596Z,988.13
2018-09-08T02:04:32.795Z,988.20
2018-09-08T02:05:32.984Z,988.17
2018-09-08T02:06:33.165Z,988.16
2018-09-08T02:07:33.355Z,988.18
2018-09-08T02:08:33.542Z,988.15
2018-09-08T02:09:33.728Z,988.17
2018-09-08T02:10:33.919Z,988.18
2018-09-08T02:11:34.101Z,988.21
2018-09-08T02:12:34.284Z,988.22
2018-09-08T02:13:34.469Z,988.20
2018-09-08T02:14:34.657Z,988.17
2018-09-08T02:15:34.842Z,988.19
2018-09-08T02:16:35.030Z,988.21
2018-09-08T02:17:35.215Z,988.25
2018-09-08T02:18:35.403Z,988.23
2018-09-08T02:19:35.585Z,988.22
2018-09-08T02:20:35.774Z,988.20
2018-09-08T02:21:35.965Z,988.25
2018-09-08T02:22:36.148Z,988.22
2018-09-08T02:23:36.336Z,988.20
2018-09-08T02:24:36.520Z,988.19
2018-09-08T02:25:36.710Z,988.20
2018-09-08T02:26:36.892Z,988.18
2018-09-08T02:27:37.076Z,988.16
2018-09-08T02:28:37.272Z,988.18
2018-09-08T02:29:37.457Z,988.15
2018-09-08T02:30:37.637Z,988.16
2018-09-08T02:31:37.828Z,988.14
2018-09-08T02:32:38.008Z,988.11
2018-09-08T02:33:38.201Z,988.09
2018-09-08T02:34:38.383Z,988.11
2018-09-08T02:35:38.569Z,988.14
2018-09-08T02:36:38.800Z,988.14
2018-09-08T02:37:38.944Z,988.12
2018-09-08T02:38:39.127Z,988.13
2018-09-08T02:39:39.315Z,988.15
2018-09-08T02:40:39.498Z,988.13
2018-09-08T02:41:39.684Z,988.09
2018-09-08T02:42:39.867Z,988.12
2018-09-08T02:43:40.054Z,988.11
2018-09-08T02:44:40.240Z,988.13
2018-09-08T02:45:40.425Z,988.12
2018-09-08T02:46:40.605Z,988.12
2018-09-08T02:47:40.800Z,988.14
2018-09-08T02:48:40.982Z,988.17
2018-09-08T02:49:41.174Z,988.12
2018-09-08T02:50:41.358Z,988.12
2018-09-08T02:51:41.540Z,988.18
2018-09-08T02:52:41.722Z,988.16
2018-09-08T02:53:41.920Z,988.15
2018-09-08T02:54:42.105Z,988.18
2018-09-08T02:55:42.287Z,988.17
2018-09-08T02:56:42.475Z,988.15
2018-09-08T02:57:42.663Z,988.15
2018-09-08T02:58:42.862Z,988.19
2018-09-08T02:59:43.038Z,988.17
2018-09-08T03:00:43.225Z,988.18
2018-09-08T03:01:43.414Z,988.21
2018-09-08T03:02:43.598Z,988.21
2018-09-08T03:03:43.787Z,988.24
2018-09-08T03:04:43.978Z,988.20
2018-09-08T03:05:44.171Z,988.21
2018-09-08T03:06:44.355Z,988.22
2018-09-08T03:07:44.540Z,988.19
2018-09-08T03:08:44.724Z,988.23
2018-09-08T03:09:44.905Z,988.20
2018-09-08T03:10:45.092Z,988.24
2018-09-08T03:11:45.282Z,988.21
2018-09-08T03:12:45.462Z,988.19
2018-09-08T03:13:45.654Z,988.20
2018-09-08T03:14:45.839Z,988.22
2018-09-08T03:15:46.024Z,988.24
2018-09-08T03:16:46.210Z,988.24
2018-09-08T03:17:46.394Z,988.28
2018-09-08T03:18:46.583Z,988.30
2018-09-08T03:19:46.771Z,988.26
2018-09-08T03:20:46.957Z,988.25
2018-09-08T03:21:47.141Z,988.30
2018-09-08T03:22:47.326Z,988.30
2018-09-08T03:23:47.510Z,988.36
2018-09-08T03:24:47.700Z,988.37
2018-09-08T03:25:47.888Z,988.36
2018-09-08T03:26:48.076Z,988.39
2018-09-08T03:27:48.264Z,988.41
2018-09-08T03:28:48.445Z,988.40
2018-09-08T03:29:48.635Z,988.45
2018-09-08T03:30:48.819Z,988.47
2018-09-08T03:31:49.002Z,988.46
2018-09-08T03:32:49.194Z,988.46
2018-09-08T03:33:49.381Z,988.48
2018-09-08T03:34:49.568Z,988.44
2018-09-08T03:35:49.760Z,988.43
2018-09-08T03:36:49.940Z,988.43
2018-09-08T03:37:50.128Z,988.44
2018-09-08T03:38:50.309Z,988.42
2018-09-08T03:39:50.499Z,988.43
2018-09-08T03:40:50.681Z,988.45
2018-09-08T03:41:50.868Z,988.50
2018-09-08T03:42:51.056Z,988.46
2018-09-08T03:43:51.241Z,988.45
2018-09-08T03:44:51.423Z,988.42
2018-09-08T03:45:51.613Z,988.45
2018-09-08T03:46:51.795Z,988.43
2018-09-08T03:47:51.982Z,988.44
2018-09-08T03:48:52.164Z,988.44
2018-09-08T03:49:52.355Z,988.46
2018-09-08T03:50:52.540Z,988.40
2018-09-08T03:51:52.728Z,988.42
2018-09-08T03:52:52.924Z,988.46
2018-09-08T03:53:53.110Z,988.45
2018-09-08T03:54:53.293Z,988.43
2018-09-08T03:55:53.485Z,988.43
2018-09-08T03:56:53.669Z,988.41
2018-09-08T03:57:53.857Z,988.44
2018-09-08T03:58:54.111Z,988.44
2018-09-08T03:59:54.233Z,988.46
2018-09-08T04:00:54.418Z,988.44
2018-09-08T04:01:54.604Z,988.45
2018-09-08T04:02:54.800Z,988.47
2018-09-08T04:03:54.988Z,988.45
2018-09-08T04:04:55.179Z,988.53
2018-09-08T04:05:55.356Z,988.52
2018-09-08T04:06:55.564Z,988.57
2018-09-08T04:07:55.738Z,988.58
2018-09-08T04:08:55.932Z,988.60
2018-09-08T04:09:56.135Z,988.65
2018-09-08T04:10:56.323Z,988.67
2018-09-08T04:11:56.510Z,988.72
2018-09-08T04:12:56.694Z,988.72
2018-09-08T04:13:56.882Z,988.73
2018-09-08T04:14:57.071Z,988.78
2018-09-08T04:15:57.253Z,988.75
2018-09-08T04:16:57.443Z,988.77
2018-09-08T04:17:57.652Z,988.79
2018-09-08T04:18:57.816Z,988.76
2018-09-08T04:19:57.998Z,988.76
2018-09-08T04:20:58.184Z,988.79
2018-09-08T04:21:58.371Z,988.77
2018-09-08T04:22:58.554Z,988.83
2018-09-08T04:23:58.752Z,988.82
2018-09-08T04:24:58.928Z,988.86
2018-09-08T04:25:59.117Z,988.88
2018-09-08T04:26:59.303Z,988.88
2018-09-08T04:27:59.490Z,988.88
2018-09-08T04:28:59.669Z,988.94
2018-09-08T04:29:59.857Z,988.90
2018-09-08T04:31:00.047Z,988.90
2018-09-08T04:32:00.232Z,988.89
2018-09-08T04:33:00.416Z,988.90
2018-09-08T04:34:00.603Z,988.91
2018-09-08T04:35:00.788Z,988.92
2018-09-08T04:36:00.970Z,988.93
2018-09-08T04:37:01.156Z,988.94
2018-09-08T04:38:01.345Z,988.92
2018-09-08T04:39:01.532Z,988.92
2018-09-08T04:40:01.711Z,988.92
2018-09-08T04:41:01.948Z,988.90
2018-09-08T04:42:02.088Z,988.94
2018-09-08T04:43:02.277Z,988.92
2018-09-08T04:44:02.464Z,988.91
2018-09-08T04:45:02.650Z,988.95
2018-09-08T04:46:02.837Z,988.94
2018-09-08T04:47:03.019Z,988.95
2018-09-08T04:48:03.211Z,988.95
2018-09-08T04:49:03.451Z,988.97
2018-09-08T04:50:03.588Z,988.96
2018-09-08T04:51:03.768Z,988.94
2018-09-08T04:52:03.951Z,988.96
2018-09-08T04:53:04.142Z,988.98
2018-09-08T04:54:04.325Z,988.98
2018-09-08T04:55:04.511Z,988.99
2018-09-08T04:56:04.695Z,989.00
2018-09-08T04:57:04.881Z,989.06
2018-09-08T04:58:05.068Z,989.03
2018-09-08T04:59:05.259Z,989.05
2018-09-08T05:00:05.439Z,989.01
2018-09-08T05:01:05.622Z,989.05
2018-09-08T05:02:05.817Z,989.01
2018-09-08T05:03:05.995Z,989.08
2018-09-08T05:04:06.183Z,989.06
2018-09-08T05:05:06.365Z,989.06
2018-09-08T05:06:06.552Z,989.07
2018-09-08T05:07:06.738Z,989.08
2018-09-08T05:08:06.929Z,989.06
2018-09-08T05:09:07.138Z,989.06
2018-09-08T05:10:07.296Z,989.04
2018-09-08T05:11:07.487Z,989.07
2018-09-08T05:12:07.675Z,989.08
2018-09-08T05:13:07.859Z,989.11
2018-09-08T05:14:08.045Z,989.11
2018-09-08T05:15:08.234Z,989.12
2018-09-08T05:16:08.423Z,989.11
2018-09-08T05:17:08.610Z,989.12
2018-09-08T05:18:08.790Z,989.15
2018-09-08T05:19:08.977Z,989.16
2018-09-08T05:20:09.159Z,989.15
2018-09-08T05:21:09.346Z,989.16
2018-09-08T05:22:09.530Z,989.13
2018-09-08T05:23:09.732Z,989.17
2018-09-08T05:24:09.908Z,989.18
2018-09-08T05:25:10.087Z,989.21
2018-09-08T05:26:10.274Z,989.22
2018-09-08T05:27:10.458Z,989.19
2018-09-08T05:28:10.645Z,989.19
2018-09-08T05:29:10.843Z,989.22
2018-09-08T05:30:11.016Z,989.25
2018-09-08T05:31:11.204Z,989.22
2018-09-08T05:32:11.390Z,989.23
2018-09-08T05:33:11.578Z,989.21
2018-09-08T05:34:11.764Z,989.24
2018-09-08T05:35:11.947Z,989.24
2018-09-08T05:36:12.129Z,989.27
2018-09-08T05:37:12.317Z,989.25
2018-09-08T05:38:12.503Z,989.29
2018-09-08T05:39:12.703Z,989.29
2018-09-08T05:40:12.885Z,989.34
2018-09-08T05:41:13.067Z,989.34
2018-09-08T05:42:13.256Z,989.36
2018-09-08T05:43:13.445Z,989.39
2018-09-08T05:44:13.629Z,989.40
2018-09-08T05:45:13.815Z,989.41
2018-09-08T05:46:13.999Z,989.39
2018-09-08T05:47:14.181Z,989.43
2018-09-08T05:48:14.372Z,989.45
2018-09-08T05:49:14.557Z,989.43
2018-09-08T05:50:14.744Z,989.48
2018-09-08T05:51:14.936Z,989.51
2018-09-08T05:52:15.121Z,989.52
2018-09-08T05:53:15.309Z,989.52
2018-09-08T05:54:15.492Z,989.56
2018-09-08T05:55:15.681Z,989.58
2018-09-08T05:56:15.866Z,989.57
2018-09-08T05:57:16.056Z,989.59
2018-09-08T05:58:16.250Z,989.60
2018-09-08T05:59:16.419Z,989.63
2018-09-08T06:00:16.616Z,989.63
2018-09-08T06:01:16.807Z,989.68
2018-09-08T06:02:17.006Z,989.67
2018-09-08T06:03:17.193Z,989.66
2018-09-08T06:04:17.378Z,989.69
2018-09-08T06:05:17.568Z,989.66
2018-09-08T06:06:17.767Z,989.73
2018-09-08T06:07:17.948Z,989.74
2018-09-08T06:08:18.136Z,989.78
2018-09-08T06:09:18.322Z,989.77
2018-09-08T06:10:18.544Z,989.78
2018-09-08T06:11:18.697Z,989.81
2018-09-08T06:12:18.891Z,989.85
2018-09-08T06:13:19.082Z,989.79
2018-09-08T06:14:19.268Z,989.79
2018-09-08T06:15:19.452Z,989.82
2018-09-08T06:16:19.636Z,989.80
2018-09-08T06:17:19.842Z,989.82
2018-09-08T06:18:20.050Z,989.83
2018-09-08T06:19:20.200Z,989.83
2018-09-08T06:20:20.385Z,989.79
2018-09-08T06:21:20.570Z,989.80
2018-09-08T06:22:20.760Z,989.82
2018-09-08T06:23:20.949Z,989.83
2018-09-08T06:24:21.164Z,989.86
2018-09-08T06:25:21.433Z,989.77
2018-09-08T06:26:21.508Z,989.74
2018-09-08T06:27:21.690Z,989.73
2018-09-08T06:28:21.923Z,989.73
2018-09-08T06:29:22.070Z,989.81
2018-09-08T06:30:22.256Z,989.78
2018-09-08T06:31:22.441Z,989.76
2018-09-08T06:32:22.624Z,989.81
2018-09-08T06:33:22.828Z,989.80
2018-09-08T06:34:23.012Z,989.88
2018-09-08T06:35:23.294Z,989.91
2018-09-08T06:36:23.379Z,989.91
2018-09-08T06:37:23.567Z,989.89
2018-09-08T06:38:23.756Z,989.97
2018-09-08T06:39:23.941Z,990.01
2018-09-08T06:40:24.129Z,990.15
2018-09-08T06:41:24.318Z,990.01
2018-09-08T06:42:24.512Z,990.27
2018-09-08T06:43:24.704Z,990.46
2018-09-08T06:44:24.884Z,990.38
2018-09-08T06:45:25.076Z,990.65
2018-09-08T06:46:25.276Z,990.44
2018-09-08T06:47:25.461Z,990.35
2018-09-08T06:48:25.654Z,990.58
2018-09-08T06:49:25.841Z,990.57
2018-09-08T06:50:26.037Z,990.53
2018-09-08T06:51:26.220Z,991.11
2018-09-08T06:52:26.411Z,990.82
2018-09-08T06:53:26.607Z,991.03
2018-09-08T06:54:26.796Z,991.04
2018-09-08T06:55:26.985Z,990.88
2018-09-08T06:56:27.180Z,990.86
2018-09-08T06:57:27.366Z,991.17
2018-09-08T06:58:27.560Z,990.75
2018-09-08T06:59:27.748Z,990.88
2018-09-08T07:00:27.946Z,991.16
2018-09-08T07:01:28.152Z,991.09
2018-09-08T07:02:28.341Z,990.73
2018-09-08T07:03:28.589Z,991.30
2018-09-08T07:04:28.734Z,991.29
2018-09-08T07:05:28.954Z,991.08
2018-09-08T07:06:29.142Z,991.28
2018-09-08T07:07:29.353Z,991.38
2018-09-08T07:08:29.541Z,991.25
2018-09-08T07:09:29.742Z,991.42
2018-09-08T07:10:29.918Z,991.43
2018-09-08T07:11:30.114Z,991.35
2018-09-08T07:12:30.311Z,991.29
2018-09-08T07:13:30.506Z,991.29
2018-09-08T07:14:30.701Z,991.31
2018-09-08T07:15:30.905Z,991.32
2018-09-08T07:16:31.103Z,991.17
2018-09-08T07:17:31.298Z,991.25
2018-09-08T07:18:31.498Z,991.35
2018-09-08T07:19:31.688Z,991.29
2018-09-08T07:20:31.883Z,991.34
2018-09-08T07:21:32.085Z,991.32
2018-09-08T07:22:32.281Z,991.28
2018-09-08T07:23:32.486Z,991.30
2018-09-08T07:24:32.676Z,991.30
2018-09-08T07:25:32.878Z,991.35
2018-09-08T07:26:33.072Z,991.38
2018-09-08T07:27:33.268Z,991.40
2018-09-08T07:28:33.468Z,991.34
2018-09-08T07:29:33.704Z,991.34
2018-09-08T07:30:33.914Z,991.39
2018-09-08T07:31:33.990Z,991.42
2018-09-08T07:32:34.185Z,991.35
2018-09-08T07:33:34.397Z,991.40
2018-09-08T07:34:34.591Z,991.45
2018-09-08T07:35:34.787Z,991.50
2018-09-08T07:36:34.984Z,991.47
2018-09-08T07:37:35.182Z,991.38
2018-09-08T07:38:35.384Z,991.46
2018-09-08T07:39:35.580Z,991.50
2018-09-08T07:40:35.778Z,991.49
2018-09-08T07:41:35.978Z,991.41
2018-09-08T07:42:36.176Z,991.41
2018-09-08T07:43:36.369Z,991.44
2018-09-08T07:44:36.570Z,991.48
2018-09-08T07:45:36.766Z,991.46
2018-09-08T07:46:36.963Z,991.51
2018-09-08T07:47:37.160Z,991.46
2018-09-08T07:48:37.369Z,991.51
2018-09-08T07:49:37.568Z,991.54
2018-09-08T07:50:37.769Z,991.58
2018-09-08T07:51:37.980Z,991.53
2018-09-08T07:52:38.175Z,991.54
2018-09-08T07:53:38.487Z,991.57
2018-09-08T07:54:38.580Z,991.59
2018-09-08T07:55:38.775Z,991.59
2018-09-08T07:56:38.996Z,991.55
2018-09-08T07:57:39.203Z,991.59
2018-09-08T07:58:39.400Z,991.61
2018-09-08T07:59:39.609Z,991.59
2018-09-08T08:00:39.808Z,991.59
2018-09-08T08:01:40.017Z,991.62
2018-09-08T08:02:40.218Z,991.67
2018-09-08T08:03:40.420Z,991.68
2018-09-08T08:04:40.617Z,991.71
2018-09-08T08:05:40.828Z,991.74
2018-09-08T08:06:41.081Z,991.75
2018-09-08T08:07:41.218Z,991.79
2018-09-08T08:08:41.420Z,991.81
2018-09-08T08:09:41.621Z,991.82
2018-09-08T08:10:41.822Z,991.82
2018-09-08T08:11:42.017Z,991.82
2018-09-08T08:12:42.219Z,991.86
2018-09-08T08:13:42.420Z,991.82
2018-09-08T08:14:42.633Z,991.86
2018-09-08T08:15:42.831Z,991.82
2018-09-08T08:16:43.035Z,991.84
2018-09-08T08:17:43.239Z,991.82
2018-09-08T08:18:43.447Z,991.81
2018-09-08T08:19:43.668Z,991.82
2018-09-08T08:20:43.866Z,991.83
2018-09-08T08:21:44.062Z,991.84
2018-09-08T08:22:44.263Z,991.84
2018-09-08T08:23:44.456Z,991.86
2018-09-08T08:24:44.665Z,991.82
2018-09-08T08:25:44.865Z,991.85
2018-09-08T08:26:45.071Z,991.83
2018-09-08T08:27:45.269Z,991.79
2018-09-08T08:28:45.477Z,991.77
2018-09-08T08:29:45.684Z,991.83
2018-09-08T08:30:45.885Z,991.79
2018-09-08T08:31:46.083Z,991.77
2018-09-08T08:32:46.275Z,991.80
2018-09-08T08:33:46.480Z,991.81
2018-09-08T08:34:46.705Z,991.82
2018-09-08T08:35:46.908Z,991.81
2018-09-08T08:36:47.107Z,991.80
2018-09-08T08:37:47.313Z,991.79
2018-09-08T08:38:47.519Z,991.77
2018-09-08T08:39:47.717Z,991.77
2018-09-08T08:40:47.921Z,991.79
2018-09-08T08:41:48.125Z,991.78
2018-09-08T08:42:48.324Z,991.73
2018-09-08T08:43:48.524Z,991.66
2018-09-08T08:44:48.726Z,991.54
2018-09-08T08:45:48.928Z,991.33
2018-09-08T08:46:49.131Z,991.28
2018-09-08T08:47:49.329Z,991.25
2018-09-08T08:48:49.536Z,991.20
2018-09-08T08:49:49.790Z,991.21
2018-09-08T08:50:49.953Z,991.23
2018-09-08T08:51:50.157Z,991.19
2018-09-08T08:52:50.372Z,991.16
2018-09-08T08:53:50.559Z,991.16
2018-09-08T08:54:50.760Z,991.15
2018-09-08T08:55:51.011Z,991.15
2018-09-08T08:56:51.172Z,991.19
2018-09-08T08:57:51.374Z,991.17
2018-09-08T08:58:51.578Z,991.16
2018-09-08T08:59:51.780Z,991.14
2018-09-08T09:00:51.991Z,991.16
2018-09-08T09:01:52.185Z,991.18
2018-09-08T09:02:52.408Z,991.16
2018-09-08T09:03:52.602Z,991.16
2018-09-08T09:04:52.821Z,991.16
2018-09-08T09:05:53.030Z,991.14
2018-09-08T09:06:53.419Z,991.11
2018-09-08T09:07:53.647Z,991.13
2018-09-08T09:08:53.623Z,991.08
2018-09-08T09:09:53.822Z,991.06
2018-09-08T09:10:54.028Z,991.08
2018-09-08T09:11:54.636Z,991.10
2018-09-08T09:12:54.496Z,991.11
2018-09-08T09:13:54.622Z,991.11
2018-09-08T09:14:54.832Z,991.11
2018-09-08T09:15:55.021Z,991.11
2018-09-08T09:16:55.315Z,991.06
2018-09-08T09:17:55.371Z,991.06
2018-09-08T09:18:55.999Z,991.01
2018-09-08T09:19:55.779Z,991.07
2018-09-08T09:20:55.981Z,991.07
2018-09-08T09:21:56.185Z,991.02
2018-09-08T09:22:56.378Z,991.05
2018-09-08T09:23:56.643Z,991.03
2018-09-08T09:24:56.833Z,991.04
2018-09-08T09:25:56.996Z,991.04
2018-09-08T09:26:57.200Z,991.12
2018-09-08T09:27:57.397Z,991.12
2018-09-08T09:28:57.596Z,991.05
2018-09-08T09:29:57.816Z,991.08
2018-09-08T09:30:58.013Z,991.08
2018-09-08T09:31:58.221Z,991.11
2018-09-08T09:32:58.435Z,991.08
2018-09-08T09:33:58.643Z,991.09
2018-09-08T09:34:58.848Z,991.05
2018-09-08T09:35:59.071Z,991.05
2018-09-08T09:36:59.282Z,991.04
2018-09-08T09:37:59.482Z,990.98
2018-09-08T09:38:59.692Z,990.98
2018-09-08T09:39:59.884Z,990.95
2018-09-08T09:41:00.097Z,990.96
2018-09-08T09:42:00.312Z,990.89
2018-09-08T09:43:00.520Z,990.83
2018-09-08T09:44:00.722Z,990.75
2018-09-08T09:45:00.926Z,990.67
2018-09-08T09:46:01.131Z,990.64
2018-09-08T09:47:01.336Z,990.63
2018-09-08T09:48:01.552Z,990.64
2018-09-08T09:49:01.735Z,990.59
2018-09-08T09:50:01.939Z,990.73
2018-09-08T09:51:02.152Z,990.68
2018-09-08T09:52:02.352Z,990.75
2018-09-08T09:53:02.590Z,990.76
2018-09-08T09:54:02.771Z,990.77
2018-09-08T09:55:02.996Z,990.72
2018-09-08T09:56:03.194Z,990.68
2018-09-08T09:57:03.394Z,990.72
2018-09-08T09:58:03.599Z,990.71
2018-09-08T09:59:03.815Z,990.76
2018-09-08T10:00:04.008Z,990.75
2018-09-08T10:01:04.226Z,990.74
2018-09-08T10:02:04.418Z,990.71
2018-09-08T10:03:04.619Z,990.61
2018-09-08T10:04:04.821Z,990.65
2018-09-08T10:05:05.025Z,990.59
2018-09-08T10:06:05.229Z,990.60
2018-09-08T10:07:05.426Z,990.57
2018-09-08T10:08:05.638Z,990.56
2018-09-08T10:09:05.843Z,990.54
2018-09-08T10:10:06.046Z,990.61
2018-09-08T10:11:06.246Z,990.64
2018-09-08T10:12:06.485Z,990.61
2018-09-08T10:13:06.664Z,990.65
2018-09-08T10:14:06.867Z,990.62
2018-09-08T10:15:07.060Z,990.62
2018-09-08T10:16:07.281Z,990.59
2018-09-08T10:17:07.481Z,990.53
2018-09-08T10:18:07.680Z,990.47
2018-09-08T10:19:07.899Z,990.48
2018-09-08T10:20:08.099Z,990.49
2018-09-08T10:21:08.300Z,990.52
2018-09-08T10:22:08.498Z,990.50
2018-09-08T10:23:08.790Z,990.48
2018-09-08T10:24:08.915Z,990.52
2018-09-08T10:25:09.116Z,990.45
2018-09-08T10:26:09.341Z,990.42
2018-09-08T10:27:09.525Z,990.38
2018-09-08T10:28:09.727Z,990.49
2018-09-08T10:29:09.928Z,990.49
2018-09-08T10:30:10.125Z,990.50
2018-09-08T10:31:10.332Z,990.45
2018-09-08T10:32:10.836Z,990.29
2018-09-08T10:33:10.731Z,990.30
2018-09-08T10:34:10.929Z,990.27
2018-09-08T10:35:11.142Z,990.24
2018-09-08T10:36:11.346Z,990.34
2018-09-08T10:37:11.549Z,990.34
2018-09-08T10:38:11.752Z,990.40
2018-09-08T10:39:11.957Z,990.46
2018-09-08T10:40:12.170Z,990.38
2018-09-08T10:41:12.369Z,990.28
2018-09-08T10:42:12.565Z,990.46
2018-09-08T10:43:12.781Z,990.42
2018-09-08T10:44:12.982Z,990.43
2018-09-08T10:45:13.189Z,990.44
2018-09-08T10:46:13.385Z,990.41
2018-09-08T10:47:13.585Z,990.39
2018-09-08T10:48:13.796Z,990.32
2018-09-08T10:49:14.015Z,990.33
2018-09-08T10:50:14.219Z,990.31
2018-09-08T10:51:14.419Z,990.25
2018-09-08T10:52:14.620Z,990.28
2018-09-08T10:53:14.822Z,990.29
2018-09-08T10:54:15.024Z,990.29
2018-09-08T10:55:15.213Z,990.28
2018-09-08T10:56:15.420Z,990.33
2018-09-08T10:57:15.621Z,990.30
2018-09-08T10:58:15.822Z,990.27
2018-09-08T10:59:16.020Z,990.25
2018-09-08T11:00:16.255Z,990.27
2018-09-08T11:01:16.443Z,990.26
2018-09-08T11:02:16.928Z,990.30
2018-09-08T11:03:16.840Z,990.29
2018-09-08T11:04:17.035Z,990.34
2018-09-08T11:05:17.239Z,990.33
2018-09-08T11:06:17.450Z,990.29
2018-09-08T11:07:17.635Z,990.28
2018-09-08T11:08:17.839Z,990.32
2018-09-08T11:09:18.038Z,990.27
2018-09-08T11:10:18.237Z,990.25
2018-09-08T11:11:18.435Z,990.20
2018-09-08T11:12:18.636Z,990.21
2018-09-08T11:13:18.840Z,990.19
2018-09-08T11:14:19.040Z,990.13
2018-09-08T11:15:19.242Z,990.14
2018-09-08T11:16:19.448Z,990.01
2018-09-08T11:17:19.645Z,990.02
2018-09-08T11:18:19.837Z,989.95
2018-09-08T11:19:20.047Z,989.97
2018-09-08T11:20:20.251Z,990.01
2018-09-08T11:21:20.465Z,990.01
2018-09-08T11:22:20.659Z,990.01
2018-09-08T11:23:20.861Z,989.93
2018-09-08T11:24:21.059Z,989.95
2018-09-08T11:25:21.261Z,990.03
2018-09-08T11:26:21.457Z,990.02
2018-09-08T11:27:21.656Z,989.99
2018-09-08T11:28:21.855Z,989.99
2018-09-08T11:29:22.048Z,989.94
2018-09-08T11:30:22.250Z,989.92
2018-09-08T11:31:22.453Z,989.92
2018-09-08T11:32:22.640Z,989.92
2018-09-08T11:33:22.878Z,989.87
2018-09-08T11:34:23.079Z,989.85
2018-09-08T11:35:23.259Z,989.88
2018-09-08T11:36:23.458Z,989.88
2018-09-08T11:37:23.658Z,989.84
2018-09-08T11:38:23.928Z,989.78
2018-09-08T11:39:24.067Z,989.73
2018-09-08T11:40:24.263Z,989.71
2018-09-08T11:41:24.461Z,989.73
2018-09-08T11:42:24.654Z,989.69
2018-09-08T11:43:24.855Z,989.68
2018-09-08T11:44:25.052Z,989.69
2018-09-08T11:45:25.259Z,989.75
2018-09-08T11:46:25.458Z,989.79
2018-09-08T11:47:25.653Z,989.74
2018-09-08T11:48:25.844Z,989.80
2018-09-08T11:49:26.056Z,989.85
2018-09-08T11:50:26.237Z,989.83
2018-09-08T11:51:26.434Z,989.81
2018-09-08T11:52:26.637Z,989.78
2018-09-08T11:53:26.832Z,989.77
2018-09-08T11:54:27.030Z,989.76
2018-09-08T11:55:27.267Z,989.75
2018-09-08T11:56:27.426Z,989.65
2018-09-08T11:57:27.619Z,989.63
2018-09-08T11:58:27.815Z,989.61
2018-09-08T11:59:28.051Z,989.60
2018-09-08T12:00:28.199Z,989.57
2018-09-08T12:01:28.397Z,989.51
2018-09-08T12:02:28.591Z,989.54
2018-09-08T12:03:28.797Z,989.50
2018-09-08T12:04:28.998Z,989.47
2018-09-08T12:05:29.202Z,989.47
2018-09-08T12:06:29.401Z,989.48
2018-09-08T12:07:29.581Z,989.46
2018-09-08T12:08:29.778Z,989.49
2018-09-08T12:09:29.983Z,989.45
2018-09-08T12:10:30.174Z,989.43
2018-09-08T12:11:30.368Z,989.47
2018-09-08T12:12:30.562Z,989.46
2018-09-08T12:13:30.755Z,989.43
2018-09-08T12:14:30.950Z,989.48
2018-09-08T12:15:31.176Z,989.49
2018-09-08T12:16:31.342Z,989.54
2018-09-08T12:17:31.527Z,989.54
2018-09-08T12:18:31.730Z,989.51
2018-09-08T12:19:31.925Z,989.50
2018-09-08T12:20:32.129Z,989.46
2018-09-08T12:21:32.329Z,989.46
2018-09-08T12:22:32.522Z,989.49
2018-09-08T12:23:32.729Z,989.47
2018-09-08T12:24:32.921Z,989.46
2018-09-08T12:25:33.125Z,989.53
2018-09-08T12:26:33.325Z,989.49
2018-09-08T12:27:33.519Z,989.49
2018-09-08T12:28:33.717Z,989.45
2018-09-08T12:29:33.916Z,989.43
2018-09-08T12:30:34.160Z,989.45